createdAt,value
2018-11-07T00:00:15.423Z,72.46
2018-11-07T00:02:44.705Z,72.48
2018-11-07T00:05:14.537Z,72.36
2018-11-07T00:07:43.796Z,72.19
2018-11-07T00:10:12.969Z,72.31
2018-11-07T00:12:42.133Z,72.02
2018-11-07T00:15:13.939Z,72.31
2018-11-07T00:17:43.211Z,72.52
2018-11-07T00:20:13.041Z,71.98
2018-11-07T00:22:42.190Z,72.52
2018-11-07T00:25:12.065Z,72.69
2018-11-07T00:27:41.477Z,72.70
2018-11-07T00:30:11.369Z,72.83
2018-11-07T00:32:40.840Z,72.61
2018-11-07T00:35:11.175Z,72.26
2018-11-07T00:37:41.169Z,72.09
2018-11-07T00:40:10.424Z,72.58
2018-11-07T00:42:39.635Z,72.20
2018-11-07T00:45:11.841Z,72.24
2018-11-07T00:47:41.882Z,72.24
2018-11-07T00:50:16.282Z,72.45
2018-11-07T00:52:45.799Z,72.61
2018-11-07T00:55:15.838Z,72.51
2018-11-07T00:57:45.219Z,72.37
2018-11-07T01:00:17.694Z,72.39
2018-11-07T01:02:47.761Z,72.53
2018-11-07T01:05:16.974Z,72.74
2018-11-07T01:07:47.208Z,72.68
2018-11-07T01:10:16.546Z,72.56
2018-11-07T01:12:45.707Z,72.72
2018-11-07T01:15:15.116Z,73.22
2018-11-07T01:17:44.373Z,73.11
2018-11-07T01:20:14.426Z,73.13
2018-11-07T01:22:43.856Z,73.17
2018-11-07T01:25:13.041Z,72.78
2018-11-07T01:27:42.206Z,73.27
2018-11-07T01:30:13.330Z,73.08
2018-11-07T01:32:42.494Z,72.93
2018-11-07T01:35:11.628Z,73.15
2018-11-07T01:37:40.824Z,73.09
2018-11-07T01:40:12.464Z,72.84
2018-11-07T01:42:41.824Z,73.20
2018-11-07T01:45:11.929Z,73.22
2018-11-07T01:47:41.117Z,73.05
2018-11-07T01:50:12.336Z,73.30
2018-11-07T01:52:41.494Z,73.44
2018-11-07T01:55:11.236Z,73.34
2018-11-07T01:57:40.393Z,73.81
2018-11-07T02:00:11.734Z,73.38
2018-11-07T02:02:42.071Z,73.65
2018-11-07T02:05:11.225Z,73.94
2018-11-07T02:07:40.773Z,73.54
2018-11-07T02:10:10.557Z,73.73
2018-11-07T02:12:40.579Z,73.63
2018-11-07T02:15:10.633Z,73.59
2018-11-07T02:17:40.031Z,74.13
2018-11-07T02:20:10.816Z,73.87
2018-11-07T02:22:40.035Z,73.67
2018-11-07T02:25:09.344Z,73.62
2018-11-07T02:27:38.946Z,73.46
2018-11-07T02:30:12.681Z,73.93
2018-11-07T02:32:41.835Z,73.82
2018-11-07T02:35:10.985Z,73.13
2018-11-07T02:37:40.368Z,74.22
2018-11-07T02:40:09.906Z,73.98
2018-11-07T02:42:39.355Z,74.21
2018-11-07T02:45:08.521Z,74.37
2018-11-07T02:47:37.717Z,74.22
2018-11-07T02:50:08.477Z,73.66
2018-11-07T02:52:37.825Z,74.23
2018-11-07T02:55:07.084Z,73.65
2018-11-07T02:57:36.403Z,73.93
2018-11-07T03:00:08.305Z,73.99
2018-11-07T03:02:37.474Z,73.88
2018-11-07T03:05:06.654Z,73.70
2018-11-07T03:07:36.043Z,74.17
2018-11-07T03:10:07.194Z,73.77
2018-11-07T03:12:36.349Z,73.74
2018-11-07T03:15:05.917Z,73.85
2018-11-07T03:17:35.118Z,73.96
2018-11-07T03:20:04.535Z,73.77
2018-11-07T03:22:33.713Z,74.10
2018-11-07T03:25:02.889Z,73.60
2018-11-07T03:27:32.026Z,73.84
2018-11-07T03:30:01.261Z,74.09
2018-11-07T03:32:30.413Z,74.12
2018-11-07T03:34:59.596Z,74.22
2018-11-07T03:37:28.756Z,74.26
2018-11-07T03:39:57.974Z,74.00
2018-11-07T03:42:27.117Z,74.45
2018-11-07T03:44:56.291Z,74.18
2018-11-07T03:47:25.441Z,74.52
2018-11-07T03:49:54.613Z,73.69
2018-11-07T03:52:23.781Z,74.39
2018-11-07T03:54:52.924Z,74.65
2018-11-07T03:57:22.080Z,74.36
2018-11-07T03:59:51.232Z,74.84
2018-11-07T04:02:20.392Z,74.57
2018-11-07T04:04:49.561Z,74.96
2018-11-07T04:07:19.728Z,74.71
2018-11-07T04:09:49.020Z,75.00
2018-11-07T04:12:18.133Z,74.93
2018-11-07T04:14:47.304Z,75.11
2018-11-07T04:17:16.453Z,75.18
2018-11-07T04:19:45.629Z,74.78
2018-11-07T04:22:14.765Z,74.97
2018-11-07T04:24:43.954Z,75.19
2018-11-07T04:27:13.153Z,75.67
2018-11-07T04:29:42.285Z,75.20
2018-11-07T04:32:11.509Z,75.29
2018-11-07T04:34:40.658Z,75.29
2018-11-07T04:37:09.823Z,75.10
2018-11-07T04:39:38.960Z,75.62
2018-11-07T04:42:08.116Z,75.40
2018-11-07T04:44:37.273Z,74.94
2018-11-07T04:47:07.016Z,75.18
2018-11-07T04:49:36.896Z,75.65
2018-11-07T04:52:06.045Z,75.38
2018-11-07T04:54:35.205Z,75.75
2018-11-07T04:57:04.346Z,75.88
2018-11-07T04:59:33.531Z,76.12
2018-11-07T05:02:02.673Z,76.05
2018-11-07T05:04:31.849Z,75.75
2018-11-07T05:07:00.980Z,75.45
2018-11-07T05:09:30.122Z,75.81
2018-11-07T05:11:59.276Z,75.21
2018-11-07T05:14:28.414Z,75.39
2018-11-07T05:16:57.568Z,75.32
2018-11-07T05:19:26.722Z,75.54
2018-11-07T05:21:55.846Z,75.24
2018-11-07T05:24:25.053Z,75.50
2018-11-07T05:26:54.203Z,75.02
2018-11-07T05:29:23.332Z,74.82
2018-11-07T05:31:52.479Z,75.23
2018-11-07T05:34:21.709Z,75.10
2018-11-07T05:36:51.026Z,74.89
2018-11-07T05:39:20.838Z,74.93
2018-11-07T05:41:50.013Z,75.90
2018-11-07T05:44:19.164Z,74.93
2018-11-07T05:46:48.332Z,75.14
2018-11-07T05:49:17.468Z,75.27
2018-11-07T05:51:46.756Z,75.83
2018-11-07T05:54:15.914Z,75.21
2018-11-07T05:56:45.061Z,74.79
2018-11-07T05:59:14.245Z,74.87
2018-11-07T06:01:43.401Z,75.17
2018-11-07T06:04:12.596Z,75.08
2018-11-07T06:06:41.814Z,75.27
2018-11-07T06:09:10.958Z,74.59
2018-11-07T06:11:40.133Z,74.18
2018-11-07T06:14:09.485Z,75.05
2018-11-07T06:16:38.672Z,75.22
2018-11-07T06:19:07.830Z,75.08
2018-11-07T06:21:36.961Z,75.31
2018-11-07T06:24:06.449Z,75.19
2018-11-07T06:26:35.585Z,75.07
2018-11-07T06:29:04.769Z,74.44
2018-11-07T06:31:33.917Z,74.99
2018-11-07T06:34:03.169Z,74.98
2018-11-07T06:36:32.229Z,74.68
2018-11-07T06:39:01.477Z,74.73
2018-11-07T06:41:30.605Z,75.57
2018-11-07T06:43:59.737Z,75.50
2018-11-07T06:46:28.902Z,75.60
2018-11-07T06:48:58.044Z,75.45
2018-11-07T06:51:27.204Z,75.55
2018-11-07T06:53:56.351Z,75.56
2018-11-07T06:56:25.493Z,75.42
2018-11-07T06:58:54.685Z,75.20
2018-11-07T07:01:23.881Z,75.59
2018-11-07T07:03:53.123Z,75.49
2018-11-07T07:06:22.275Z,75.66
2018-11-07T07:08:51.516Z,75.58
2018-11-07T07:11:20.689Z,75.77
2018-11-07T07:13:49.829Z,76.02
2018-11-07T07:16:19.029Z,76.02
2018-11-07T07:18:48.263Z,75.57
2018-11-07T07:21:17.408Z,75.26
2018-11-07T07:23:46.569Z,75.16
2018-11-07T07:26:15.729Z,74.96
2018-11-07T07:28:45.857Z,74.44
2018-11-07T07:31:15.206Z,73.67
2018-11-07T07:33:44.769Z,73.85
2018-11-07T07:36:14.153Z,73.47
2018-11-07T07:38:43.486Z,73.15
2018-11-07T07:41:12.670Z,72.60
2018-11-07T07:43:41.845Z,72.36
2018-11-07T07:46:11.099Z,71.94
2018-11-07T07:48:41.168Z,71.72
2018-11-07T07:51:10.345Z,71.87
2018-11-07T07:53:39.546Z,71.57
2018-11-07T07:56:08.725Z,71.26
2018-11-07T07:58:37.890Z,71.30
2018-11-07T08:01:07.069Z,70.79
2018-11-07T08:03:36.254Z,70.91
2018-11-07T08:06:05.709Z,70.89
2018-11-07T08:08:34.904Z,71.04
2018-11-07T08:11:11.190Z,71.18
2018-11-07T08:13:40.374Z,70.58
2018-11-07T08:16:09.514Z,70.37
2018-11-07T08:18:38.681Z,69.69
2018-11-07T08:21:07.892Z,69.06
2018-11-07T08:23:36.993Z,68.84
2018-11-07T08:26:06.229Z,68.42
2018-11-07T08:28:35.413Z,67.73
2018-11-07T08:31:04.875Z,67.05
2018-11-07T08:33:34.035Z,67.46
2018-11-07T08:36:03.201Z,66.37
2018-11-07T08:38:32.366Z,65.72
2018-11-07T08:41:01.510Z,63.77
2018-11-07T08:43:30.697Z,62.88
2018-11-07T08:46:02.720Z,61.07
2018-11-07T08:48:32.023Z,60.64
2018-11-07T08:51:01.178Z,59.51
2018-11-07T08:53:30.334Z,57.69
2018-11-07T08:55:59.501Z,56.62
2018-11-07T08:58:28.667Z,55.96
2018-11-07T09:00:57.810Z,55.86
2018-11-07T09:03:26.999Z,55.00
2018-11-07T09:05:56.131Z,53.20
2018-11-07T09:08:25.269Z,53.04
2018-11-07T09:10:54.475Z,52.20
2018-11-07T09:13:23.653Z,51.65
2018-11-07T09:15:52.873Z,52.17
2018-11-07T09:18:22.078Z,51.22
2018-11-07T09:20:51.280Z,51.17
2018-11-07T09:23:20.457Z,50.46
2018-11-07T09:25:49.657Z,51.15
2018-11-07T09:28:18.833Z,51.54
2018-11-07T09:30:48.013Z,50.51
2018-11-07T09:33:17.204Z,50.04
2018-11-07T09:35:46.371Z,49.80
2018-11-07T09:38:15.529Z,50.34
2018-11-07T09:40:44.733Z,50.55
2018-11-07T09:43:13.937Z,49.99
2018-11-07T09:45:43.166Z,47.99
2018-11-07T09:48:12.404Z,47.99
2018-11-07T09:50:41.560Z,48.35
2018-11-07T09:53:10.803Z,47.65
2018-11-07T09:55:40.013Z,47.17
2018-11-07T09:58:09.181Z,45.84
2018-11-07T10:00:38.407Z,45.62
2018-11-07T10:03:07.593Z,46.24
2018-11-07T10:05:36.881Z,45.35
2018-11-07T10:08:06.259Z,44.99
2018-11-07T10:10:35.446Z,44.45
2018-11-07T10:13:04.626Z,45.31
2018-11-07T10:15:33.790Z,45.40
2018-11-07T10:18:02.953Z,44.69
2018-11-07T10:20:32.510Z,44.85
2018-11-07T10:23:01.637Z,45.33
2018-11-07T10:25:30.793Z,44.37
2018-11-07T10:28:00.228Z,43.84
2018-11-07T10:30:29.336Z,44.18
2018-11-07T10:32:58.349Z,45.98
2018-11-07T10:35:27.553Z,45.09
2018-11-07T10:37:56.834Z,44.19
2018-11-07T10:40:25.944Z,44.42
2018-11-07T10:42:55.106Z,44.16
2018-11-07T10:45:24.284Z,43.37
2018-11-07T10:47:53.437Z,45.79
2018-11-07T10:50:22.820Z,45.05
2018-11-07T10:52:52.165Z,43.90
2018-11-07T10:55:21.336Z,43.75
2018-11-07T10:57:50.497Z,44.29
2018-11-07T11:00:24.809Z,44.04
2018-11-07T11:02:59.309Z,44.56
2018-11-07T11:05:28.473Z,44.18
2018-11-07T11:07:57.649Z,43.59
2018-11-07T11:10:27.245Z,44.11
2018-11-07T11:12:56.417Z,44.31
2018-11-07T11:15:25.599Z,43.69
2018-11-07T11:17:54.829Z,43.61
2018-11-07T11:20:24.134Z,43.13
2018-11-07T11:22:53.358Z,43.35
2018-11-07T11:25:22.562Z,42.38
2018-11-07T11:27:51.774Z,42.36
2018-11-07T11:30:21.058Z,43.30
2018-11-07T11:32:50.171Z,44.14
2018-11-07T11:35:19.448Z,44.05
2018-11-07T11:37:48.541Z,43.01
2018-11-07T11:40:17.808Z,43.92
2018-11-07T11:42:47.084Z,44.39
2018-11-07T11:45:17.125Z,44.10
2018-11-07T11:47:46.817Z,44.90
2018-11-07T11:50:17.372Z,44.64
2018-11-07T11:52:47.477Z,44.88
2018-11-07T11:55:16.790Z,44.66
2018-11-07T11:57:46.488Z,43.56
2018-11-07T12:00:18.202Z,43.87
2018-11-07T12:02:47.685Z,44.51
2018-11-07T12:05:17.789Z,45.18
2018-11-07T12:07:47.043Z,45.59
2018-11-07T12:10:22.525Z,44.80
2018-11-07T12:12:52.845Z,44.92
2018-11-07T12:15:23.455Z,45.39
2018-11-07T12:17:53.179Z,45.18
2018-11-07T12:20:22.409Z,46.43
2018-11-07T12:22:51.604Z,46.78
2018-11-07T12:25:21.486Z,46.51
2018-11-07T12:27:50.706Z,46.95
2018-11-07T12:30:21.472Z,46.71
2018-11-07T12:32:51.670Z,45.49
2018-11-07T12:35:21.425Z,46.15
2018-11-07T12:37:50.585Z,46.61
2018-11-07T12:40:20.301Z,46.57
2018-11-07T12:42:49.507Z,46.50
2018-11-07T12:45:18.753Z,47.18
2018-11-07T12:47:47.969Z,46.58
2018-11-07T12:50:19.747Z,48.92
2018-11-07T12:52:48.801Z,48.53
2018-11-07T12:55:18.626Z,48.36
2018-11-07T12:57:47.890Z,49.44
2018-11-07T13:00:22.894Z,49.61
2018-11-07T13:02:52.117Z,48.95
2018-11-07T13:05:22.066Z,48.88
2018-11-07T13:07:52.033Z,49.34
2018-11-07T13:10:22.129Z,49.03
2018-11-07T13:12:51.985Z,49.22
2018-11-07T13:15:21.151Z,49.70
2018-11-07T13:17:51.275Z,49.84
2018-11-07T13:20:21.893Z,50.13
2018-11-07T13:22:52.207Z,50.05
2018-11-07T13:25:21.815Z,50.64
2018-11-07T13:27:51.098Z,51.13
2018-11-07T13:30:21.560Z,52.06
2018-11-07T13:32:50.724Z,52.23
2018-11-07T13:35:20.422Z,52.49
2018-11-07T13:37:51.244Z,52.51
2018-11-07T13:40:21.849Z,52.91
2018-11-07T13:42:51.652Z,51.87
2018-11-07T13:45:22.347Z,51.99
2018-11-07T13:47:52.815Z,52.88
2018-11-07T13:50:22.192Z,53.35
2018-11-07T13:52:51.626Z,53.28
2018-11-07T13:55:20.747Z,52.12
2018-11-07T13:57:50.030Z,51.46
2018-11-07T14:00:20.744Z,51.65
2018-11-07T14:02:50.541Z,51.80
2018-11-07T14:05:19.912Z,51.43
2018-11-07T14:07:49.029Z,52.08
2018-11-07T14:10:21.274Z,51.88
2018-11-07T14:12:50.706Z,52.65
2018-11-07T14:15:19.903Z,53.43
2018-11-07T14:17:49.203Z,53.45
2018-11-07T14:20:18.451Z,53.43
2018-11-07T14:22:47.621Z,53.03
2018-11-07T14:25:16.801Z,53.98
2018-11-07T14:27:46.104Z,53.49
2018-11-07T14:30:17.334Z,55.14
2018-11-07T14:32:54.017Z,54.97
2018-11-07T14:35:23.399Z,55.03
2018-11-07T14:37:53.374Z,55.70
2018-11-07T14:40:22.705Z,56.72
2018-11-07T14:42:51.929Z,57.44
2018-11-07T14:45:21.094Z,58.12
2018-11-07T14:47:50.322Z,59.97
2018-11-07T14:50:19.434Z,60.30
2018-11-07T14:52:49.338Z,61.25
2018-11-07T14:55:18.643Z,62.87
2018-11-07T14:57:48.078Z,62.84
2018-11-07T15:00:17.646Z,63.51
2018-11-07T15:02:47.120Z,64.17
2018-11-07T15:05:17.291Z,64.17
2018-11-07T15:07:46.676Z,64.27
2018-11-07T15:10:16.602Z,65.06
2018-11-07T15:12:45.841Z,65.36
2018-11-07T15:15:16.393Z,66.12
2018-11-07T15:17:45.582Z,66.37
2018-11-07T15:20:15.785Z,66.59
2018-11-07T15:22:45.072Z,67.04
2018-11-07T15:25:15.229Z,66.77
2018-11-07T15:27:45.374Z,67.84
2018-11-07T15:30:15.365Z,67.93
2018-11-07T15:32:44.887Z,68.33
2018-11-07T15:35:14.293Z,69.07
2018-11-07T15:37:43.497Z,69.29
2018-11-07T15:40:14.404Z,69.64
2018-11-07T15:42:44.035Z,69.87
2018-11-07T15:45:14.877Z,69.65
2018-11-07T15:47:44.370Z,69.99
2018-11-07T15:51:19.602Z,70.24
2018-11-07T15:53:48.833Z,70.98
2018-11-07T15:56:18.118Z,71.01
2018-11-07T15:58:47.383Z,71.38
2018-11-07T16:01:16.625Z,72.20
2018-11-07T16:03:49.776Z,72.67
2018-11-07T16:06:20.573Z,72.35
2018-11-07T16:08:50.149Z,72.79
2018-11-07T16:11:19.350Z,72.96
2018-11-07T16:13:48.713Z,72.57
2018-11-07T16:16:17.869Z,73.30
2018-11-07T16:18:47.026Z,73.19
2018-11-07T16:21:16.237Z,73.66
2018-11-07T16:23:45.496Z,73.85
2018-11-07T16:26:14.679Z,73.80
2018-11-07T16:28:44.397Z,74.08
2018-11-07T16:31:13.565Z,73.50
2018-11-07T16:33:42.741Z,73.45
2018-11-07T16:36:11.996Z,73.60
2018-11-07T16:38:41.255Z,73.47
2018-11-07T16:41:10.537Z,73.19
2018-11-07T16:43:40.145Z,73.23
2018-11-07T16:46:09.345Z,74.33
2018-11-07T16:48:38.622Z,73.83
2018-11-07T16:51:07.751Z,74.08
2018-11-07T16:53:36.911Z,74.21
2018-11-07T16:56:06.712Z,74.71
2018-11-07T16:58:36.205Z,75.21
2018-11-07T17:01:05.508Z,75.47
2018-11-07T17:03:34.687Z,75.88
2018-11-07T17:06:03.839Z,75.84
2018-11-07T17:08:33.013Z,75.70
2018-11-07T17:11:02.237Z,75.59
2018-11-07T17:13:31.420Z,75.66
2018-11-07T17:16:00.602Z,76.00
2018-11-07T17:18:29.881Z,75.58
2018-11-07T17:20:59.052Z,75.10
2018-11-07T17:23:28.223Z,74.91
2018-11-07T17:25:57.415Z,76.39
2018-11-07T17:28:26.597Z,75.88
2018-11-07T17:30:55.800Z,76.60
2018-11-07T17:33:25.069Z,75.91
2018-11-07T17:35:54.570Z,76.41
2018-11-07T17:38:23.816Z,75.98
2018-11-07T17:40:52.965Z,76.19
2018-11-07T17:43:22.114Z,75.24
2018-11-07T17:45:51.262Z,75.32
2018-11-07T17:48:20.602Z,75.60
2018-11-07T17:50:49.577Z,75.38
2018-11-07T17:53:18.739Z,76.34
2018-11-07T17:55:47.924Z,75.07
2018-11-07T17:58:17.090Z,74.84
2018-11-07T18:00:46.268Z,75.45
2018-11-07T18:03:15.441Z,75.27
2018-11-07T18:05:44.617Z,75.10
2018-11-07T18:08:13.777Z,75.68
2018-11-07T18:10:43.611Z,75.39
2018-11-07T18:13:12.768Z,75.26
2018-11-07T18:15:42.079Z,75.49
2018-11-07T18:18:11.194Z,75.94
2018-11-07T18:20:40.357Z,75.73
2018-11-07T18:23:09.520Z,76.27
2018-11-07T18:25:38.688Z,76.64
2018-11-07T18:28:07.885Z,76.42
2018-11-07T18:30:37.045Z,76.55
2018-11-07T18:33:06.299Z,76.78
2018-11-07T18:35:35.484Z,76.15
2018-11-07T18:38:04.626Z,76.86
2018-11-07T18:40:33.814Z,76.81
2018-11-07T18:43:03.063Z,76.61
2018-11-07T18:45:32.301Z,76.97
2018-11-07T18:48:01.509Z,76.86
2018-11-07T18:50:30.755Z,76.40
2018-11-07T18:53:00.017Z,76.79
2018-11-07T18:55:29.221Z,77.16
2018-11-07T18:57:58.516Z,76.86
2018-11-07T19:00:27.712Z,77.08
2018-11-07T19:02:56.941Z,76.62
2018-11-07T19:05:26.118Z,76.73
2018-11-07T19:07:55.362Z,76.71
2018-11-07T19:10:24.540Z,77.25
2018-11-07T19:12:53.736Z,77.29
2018-11-07T19:15:22.945Z,76.74
2018-11-07T19:17:52.655Z,76.97
2018-11-07T19:20:21.909Z,77.20
2018-11-07T19:22:51.173Z,77.31
2018-11-07T19:25:21.469Z,77.28
2018-11-07T19:27:50.647Z,77.41
2018-11-07T19:30:21.118Z,77.03
2018-11-07T19:32:51.284Z,77.02
2018-11-07T19:35:20.855Z,77.28
2018-11-07T19:37:50.610Z,76.66
2018-11-07T19:40:21.390Z,77.17
2018-11-07T19:42:50.497Z,76.99
2018-11-07T19:45:20.569Z,77.52
2018-11-07T19:47:50.113Z,77.48
2018-11-07T19:50:20.598Z,77.60
2018-11-07T19:52:51.275Z,77.50
2018-11-07T19:55:22.272Z,78.07
2018-11-07T19:57:58.887Z,77.87
2018-11-07T20:00:28.175Z,78.34
2018-11-07T20:02:57.408Z,78.01
2018-11-07T20:05:26.796Z,77.92
2018-11-07T20:07:55.975Z,78.41
2018-11-07T20:10:25.276Z,78.12
2018-11-07T20:12:54.402Z,78.34
2018-11-07T20:15:23.581Z,78.87
2018-11-07T20:17:52.812Z,78.93
2018-11-07T20:20:22.005Z,78.85
2018-11-07T20:22:51.256Z,78.86
2018-11-07T20:25:20.363Z,78.46
2018-11-07T20:27:49.592Z,78.74
2018-11-07T20:30:19.962Z,78.70
2018-11-07T20:32:49.170Z,78.82
2018-11-07T20:35:19.485Z,78.53
2018-11-07T20:37:48.621Z,78.62
2018-11-07T20:40:19.198Z,78.43
2018-11-07T20:42:48.411Z,78.98
2018-11-07T20:45:18.050Z,79.00
2018-11-07T20:47:47.293Z,78.87
2018-11-07T20:50:18.565Z,78.62
2018-11-07T20:52:48.069Z,78.20
2018-11-07T20:55:20.352Z,78.13
2018-11-07T20:57:49.522Z,78.33
2018-11-07T21:00:21.409Z,78.51
2018-11-07T21:02:50.907Z,78.61
2018-11-07T21:05:20.100Z,78.78
2018-11-07T21:07:49.314Z,78.44
2018-11-07T21:10:20.641Z,78.62
2018-11-07T21:12:50.257Z,78.31
2018-11-07T21:15:20.353Z,78.29
2018-11-07T21:17:49.547Z,78.27
2018-11-07T21:20:18.767Z,78.61
2018-11-07T21:22:47.967Z,78.26
2018-11-07T21:25:17.178Z,78.97
2018-11-07T21:27:46.368Z,78.79
2018-11-07T21:30:15.863Z,79.33
2018-11-07T21:32:45.301Z,78.79
2018-11-07T21:35:14.478Z,78.61
2018-11-07T21:37:43.600Z,77.97
2018-11-07T21:40:15.558Z,77.71
2018-11-07T21:42:46.722Z,77.62
2018-11-07T21:45:23.784Z,76.87
2018-11-07T21:47:53.226Z,77.22
2018-11-07T21:50:22.406Z,76.45
2018-11-07T21:52:56.061Z,76.82
2018-11-07T21:55:28.257Z,76.76
2018-11-07T21:57:57.478Z,76.75
2018-11-07T22:00:26.645Z,76.39
2018-11-07T22:02:55.931Z,76.62
2018-11-07T22:05:25.041Z,76.21
2018-11-07T22:07:54.305Z,76.97
2018-11-07T22:10:23.477Z,77.07
2018-11-07T22:12:52.709Z,77.10
2018-11-07T22:15:21.892Z,77.36
2018-11-07T22:17:51.106Z,77.03
2018-11-07T22:20:22.155Z,77.42
2018-11-07T22:22:51.385Z,77.27
2018-11-07T22:25:20.578Z,77.24
2018-11-07T22:27:49.821Z,77.42
2018-11-07T22:30:19.156Z,77.78
2018-11-07T22:32:48.337Z,77.46
2018-11-07T22:35:18.346Z,78.06
2018-11-07T22:37:47.748Z,77.78
2018-11-07T22:40:18.173Z,78.11
2018-11-07T22:42:47.361Z,77.79
2018-11-07T22:45:16.668Z,78.09
2018-11-07T22:47:45.916Z,78.11
2018-11-07T22:50:15.974Z,77.98
2018-11-07T22:52:45.774Z,78.31
2018-11-07T22:55:14.938Z,77.93
2018-11-07T22:57:44.167Z,77.98
2018-11-07T23:00:21.277Z,78.07
2018-11-07T23:02:51.697Z,78.29
2018-11-07T23:05:20.872Z,78.31
2018-11-07T23:07:50.603Z,78.13
2018-11-07T23:10:19.753Z,78.01
2018-11-07T23:12:49.394Z,78.21
2018-11-07T23:15:23.773Z,78.21
2018-11-07T23:17:52.967Z,78.49
2018-11-07T23:20:22.138Z,78.47
2018-11-07T23:22:51.282Z,78.40
2018-11-07T23:25:20.660Z,78.42
2018-11-07T23:27:49.885Z,78.14
2018-11-07T23:30:19.145Z,78.53
2018-11-07T23:32:48.317Z,78.32
2018-11-07T23:35:17.468Z,77.73
2018-11-07T23:37:46.625Z,77.76
2018-11-07T23:40:15.816Z,77.70
2018-11-07T23:42:44.980Z,77.62
2018-11-07T23:45:14.122Z,77.63
2018-11-07T23:47:43.304Z,77.57
2018-11-07T23:50:12.461Z,77.66
2018-11-07T23:52:46.852Z,77.20
2018-11-07T23:55:17.020Z,77.18
2018-11-07T23:57:46.197Z,77.38
